createdAt,value
2023-04-28T00:02:48.722Z,93.10
2023-04-28T00:06:50.765Z,93.10
2023-04-28T00:10:52.903Z,93.10
2023-04-28T00:14:56.079Z,93.00
2023-04-28T00:18:58.507Z,93.40
2023-04-28T00:23:00.846Z,93.80
2023-04-28T00:27:03.408Z,94.00
2023-04-28T00:31:12.701Z,93.90
2023-04-28T00:35:14.777Z,93.70
2023-04-28T00:39:18.556Z,93.80
2023-04-28T00:43:20.629Z,94.00
2023-04-28T00:47:22.809Z,93.90
2023-04-28T00:51:28.934Z,93.70
2023-04-28T00:55:33.335Z,94.10
2023-04-28T00:59:35.543Z,93.90
2023-04-28T01:03:41.160Z,93.90
2023-04-28T01:07:43.925Z,94.60
2023-04-28T01:11:46.081Z,94.70
2023-04-28T01:15:55.833Z,94.70
2023-04-28T01:19:57.914Z,94.60
2023-04-28T01:24:00.933Z,94.50
2023-04-28T01:28:03.688Z,94.90
2023-04-28T01:32:06.032Z,94.70
2023-04-28T01:36:09.267Z,94.60
2023-04-28T01:40:12.793Z,94.70
2023-04-28T01:44:15.307Z,94.40
2023-04-28T01:48:17.627Z,94.30
2023-04-28T01:52:23.060Z,94.00
2023-04-28T01:56:25.104Z,94.10
2023-04-28T02:00:29.141Z,94.20
2023-04-28T02:04:31.502Z,94.10
2023-04-28T02:08:33.500Z,94.10
2023-04-28T02:12:35.809Z,94.10
2023-04-28T02:16:38.155Z,94.30
2023-04-28T02:20:40.014Z,94.50
2023-04-28T02:24:43.431Z,94.30
2023-04-28T02:28:45.460Z,94.20
2023-04-28T02:32:48.586Z,94.20
2023-04-28T02:36:51.646Z,94.60
2023-04-28T02:41:01.892Z,94.70
2023-04-28T02:45:04.311Z,94.90
2023-04-28T02:49:06.099Z,95.00
2023-04-28T02:53:07.915Z,95.20
2023-04-28T02:57:09.860Z,95.50
2023-04-28T03:01:12.058Z,95.70
2023-04-28T03:05:14.059Z,96.00
2023-04-28T03:09:16.389Z,96.10
2023-04-28T03:13:18.530Z,95.90
2023-04-28T03:17:21.506Z,96.10
2023-04-28T03:21:23.462Z,96.60
2023-04-28T03:25:25.712Z,96.80
2023-04-28T03:29:27.937Z,96.70
2023-04-28T03:33:29.996Z,96.80
2023-04-28T03:37:32.814Z,97.10
2023-04-28T03:41:35.048Z,97.60
2023-04-28T03:45:55.738Z,97.40
2023-04-28T03:49:58.971Z,97.40
2023-04-28T03:54:01.489Z,97.10
2023-04-28T03:58:04.589Z,97.00
2023-04-28T04:02:06.494Z,96.90
2023-04-28T04:06:08.663Z,97.50
2023-04-28T04:10:11.141Z,97.60
2023-04-28T04:14:16.406Z,98.30
2023-04-28T04:18:19.386Z,98.40
2023-04-28T04:22:39.980Z,98.10
2023-04-28T04:26:42.030Z,98.70
2023-04-28T04:31:08.690Z,98.60
2023-04-28T04:35:11.184Z,98.50
2023-04-28T04:39:13.226Z,98.40
2023-04-28T04:43:15.457Z,98.60
2023-04-28T04:47:24.084Z,98.50
2023-04-28T04:51:26.298Z,98.40
2023-04-28T04:55:31.491Z,98.50
2023-04-28T04:59:33.828Z,98.60
2023-04-28T05:03:43.647Z,98.80
2023-04-28T05:07:46.726Z,98.70
2023-04-28T05:11:49.353Z,98.70
2023-04-28T05:15:51.775Z,98.90
2023-04-28T05:20:16.817Z,99.10
2023-04-28T05:24:23.270Z,99.30
2023-04-28T05:28:26.590Z,99.00
2023-04-28T05:32:30.893Z,98.80
2023-04-28T05:36:33.065Z,98.50
2023-04-28T05:40:35.078Z,98.50
2023-04-28T05:44:37.121Z,98.30
2023-04-28T05:48:39.392Z,98.20
2023-04-28T05:52:41.492Z,98.10
2023-04-28T05:56:43.678Z,98.00
2023-04-28T06:00:45.752Z,98.00
2023-04-28T06:04:47.861Z,98.00
2023-04-28T06:08:51.049Z,98.20
2023-04-28T06:12:53.089Z,98.30
2023-04-28T06:16:54.956Z,99.10
2023-04-28T06:20:57.518Z,99.80
2023-04-28T06:24:59.694Z,99.90
2023-04-28T06:29:08.994Z,99.80
2023-04-28T06:33:11.202Z,99.70
2023-04-28T06:37:14.934Z,99.40
2023-04-28T06:41:16.964Z,99.90
2023-04-28T06:45:22.796Z,99.90
2023-04-28T06:49:24.882Z,99.90
2023-04-28T06:53:59.351Z,99.90
2023-04-28T06:58:01.452Z,99.90
2023-04-28T07:02:03.623Z,99.90
2023-04-28T07:06:06.475Z,99.90
2023-04-28T07:10:08.973Z,99.90
2023-04-28T07:14:11.266Z,99.90
2023-04-28T07:18:13.368Z,99.90
2023-04-28T07:22:15.545Z,99.90
2023-04-28T07:26:17.594Z,99.90
2023-04-28T07:34:28.678Z,99.90
2023-04-28T07:38:30.711Z,99.90
2023-04-28T07:42:32.776Z,99.90
2023-04-28T07:46:35.474Z,99.90
2023-04-28T07:50:37.435Z,99.90
2023-04-28T07:54:39.655Z,99.90
2023-04-28T07:58:42.540Z,99.90
2023-04-28T08:02:44.532Z,99.90
2023-04-28T08:06:46.434Z,99.90
2023-04-28T08:10:50.646Z,99.90
2023-04-28T08:14:52.857Z,99.90
2023-04-28T08:18:55.001Z,99.90
2023-04-28T08:22:57.080Z,99.90
2023-04-28T08:26:59.157Z,99.90
2023-04-28T08:31:01.412Z,99.90
2023-04-28T08:35:03.640Z,99.90
2023-04-28T08:39:08.535Z,99.90
2023-04-28T08:43:11.524Z,99.90
2023-04-28T08:47:14.582Z,99.90
2023-04-28T08:51:26.320Z,99.90
2023-04-28T08:55:28.805Z,99.90
2023-04-28T08:59:31.412Z,99.90
2023-04-28T09:03:33.566Z,99.90
2023-04-28T09:07:36.627Z,99.90
2023-04-28T09:11:51.455Z,99.90
2023-04-28T09:15:59.932Z,99.90
2023-04-28T09:20:04.232Z,99.90
2023-04-28T09:24:07.080Z,99.90
2023-04-28T09:28:22.094Z,99.90
2023-04-28T09:32:24.986Z,99.90
2023-04-28T09:36:31.555Z,99.90
2023-04-28T09:40:34.443Z,99.90
2023-04-28T09:44:36.433Z,99.90
2023-04-28T09:48:39.009Z,99.90
2023-04-28T09:57:41.064Z,99.90
2023-04-28T10:02:08.948Z,99.90
2023-04-28T10:06:29.267Z,99.90
2023-04-28T10:10:48.658Z,99.90
2023-04-28T10:14:54.589Z,99.90
2023-04-28T10:18:57.891Z,99.90
2023-04-28T10:23:10.296Z,99.90
2023-04-28T10:27:13.156Z,99.90
2023-04-28T10:31:23.395Z,99.90
2023-04-28T10:35:47.659Z,99.90
2023-04-28T10:40:28.454Z,99.90
2023-04-28T10:44:30.607Z,99.90
2023-04-28T10:48:47.798Z,99.90
2023-04-28T10:52:51.874Z,99.90
2023-04-28T10:57:16.264Z,99.90
2023-04-28T11:01:21.295Z,99.90
2023-04-28T11:05:23.726Z,99.90
2023-04-28T11:09:35.985Z,99.90
2023-04-28T11:13:38.799Z,99.90
2023-04-28T11:17:42.536Z,99.90
2023-04-28T11:21:44.969Z,99.90
2023-04-28T11:25:57.998Z,99.90
2023-04-28T11:30:01.651Z,99.90
2023-04-28T11:34:12.075Z,99.90
2023-04-28T11:38:14.286Z,99.90
2023-04-28T11:42:17.323Z,99.90
2023-04-28T11:46:21.910Z,99.90
2023-04-28T11:50:45.515Z,99.90
2023-04-28T11:54:58.638Z,99.90
2023-04-28T11:59:03.891Z,99.90
2023-04-28T12:03:09.179Z,99.90
2023-04-28T12:07:19.209Z,99.90
2023-04-28T12:11:22.589Z,99.90
2023-04-28T12:15:51.440Z,99.90
2023-04-28T12:19:57.702Z,99.90
2023-04-28T12:23:59.889Z,99.90
2023-04-28T12:28:07.755Z,99.90
2023-04-28T12:32:11.757Z,99.90
2023-04-28T12:36:13.878Z,99.90
2023-04-28T12:40:15.845Z,99.90
2023-04-28T12:44:17.755Z,99.90
2023-04-28T12:48:20.033Z,99.90
2023-04-28T12:52:22.687Z,99.90
2023-04-28T12:56:24.880Z,99.90
2023-04-28T13:00:26.751Z,99.90
2023-04-28T13:04:29.022Z,99.90
2023-04-28T13:08:34.072Z,99.90
2023-04-28T13:12:36.219Z,99.90
2023-04-28T13:16:38.376Z,99.90
2023-04-28T13:20:40.663Z,99.90
2023-04-28T13:24:43.042Z,99.90
2023-04-28T13:28:46.882Z,99.90
2023-04-28T13:32:49.210Z,99.90
2023-04-28T13:36:54.001Z,99.90
2023-04-28T13:40:56.080Z,99.90
2023-04-28T13:44:58.109Z,99.90
2023-04-28T13:49:00.326Z,99.90
2023-04-28T13:53:02.352Z,99.90
2023-04-28T13:57:04.529Z,99.90
2023-04-28T14:01:07.568Z,99.90
2023-04-28T14:05:10.691Z,99.90
2023-04-28T14:09:12.827Z,99.90
2023-04-28T14:13:15.036Z,99.90
2023-04-28T14:17:16.959Z,99.90
2023-04-28T14:21:18.931Z,99.90
2023-04-28T14:25:21.488Z,99.90
2023-04-28T14:29:23.542Z,99.90
2023-04-28T14:33:25.712Z,99.90
2023-04-28T14:37:27.595Z,99.90
2023-04-28T14:41:29.815Z,99.90
2023-04-28T14:45:35.847Z,99.90
2023-04-28T14:49:38.188Z,99.90
2023-04-28T14:53:40.584Z,99.90
2023-04-28T14:57:42.779Z,99.90
2023-04-28T15:02:37.893Z,99.90
2023-04-28T15:06:39.954Z,99.90
2023-04-28T15:10:42.096Z,99.90
2023-04-28T15:14:43.912Z,99.90
2023-04-28T15:18:46.236Z,99.90
2023-04-28T15:22:48.566Z,99.90
2023-04-28T15:26:53.484Z,99.90
2023-04-28T15:31:06.064Z,99.90
2023-04-28T15:35:08.300Z,99.90
2023-04-28T15:39:10.577Z,99.90
2023-04-28T15:43:13.320Z,99.90
2023-04-28T15:47:15.310Z,99.90
2023-04-28T15:51:17.407Z,99.90
2023-04-28T15:55:21.950Z,99.90
2023-04-28T15:59:24.323Z,99.90
2023-04-28T16:03:27.294Z,99.90
2023-04-28T16:07:31.467Z,99.90
2023-04-28T16:11:33.344Z,99.90
2023-04-28T16:15:35.281Z,99.90
2023-04-28T16:19:37.399Z,99.90
2023-04-28T16:23:39.435Z,99.90
2023-04-28T16:27:41.664Z,99.90
2023-04-28T16:31:45.816Z,99.90
2023-04-28T16:35:55.781Z,99.90
2023-04-28T16:39:57.810Z,99.90
2023-04-28T16:43:59.722Z,99.90
2023-04-28T16:48:01.649Z,99.90
2023-04-28T16:52:05.147Z,99.90
2023-04-28T16:56:09.808Z,99.90
2023-04-28T17:00:13.909Z,99.90
2023-04-28T17:04:17.131Z,99.90
2023-04-28T17:08:19.598Z,99.90
2023-04-28T17:12:23.256Z,99.90
2023-04-28T17:16:25.549Z,99.90
2023-04-28T17:20:29.761Z,99.90
2023-04-28T17:24:32.009Z,99.90
2023-04-28T17:28:34.510Z,99.90
2023-04-28T17:32:37.440Z,99.90
2023-04-28T17:36:40.109Z,99.90
2023-04-28T17:40:44.957Z,99.90
2023-04-28T17:44:47.192Z,99.90
2023-04-28T17:48:49.919Z,99.90
2023-04-28T17:53:02.388Z,99.90
2023-04-28T17:57:04.714Z,99.90
2023-04-28T18:01:08.217Z,99.90
2023-04-28T18:05:11.081Z,99.90
2023-04-28T18:09:13.440Z,99.90
2023-04-28T18:13:15.919Z,99.90
2023-04-28T18:17:17.976Z,99.90
2023-04-28T18:21:19.958Z,99.90
2023-04-28T18:25:22.131Z,99.90
2023-04-28T18:29:24.403Z,99.90
2023-04-28T18:33:28.804Z,99.90
2023-04-28T18:37:31.555Z,99.90
2023-04-28T18:41:34.457Z,99.90
2023-04-28T18:45:41.229Z,99.90
2023-04-28T18:49:45.332Z,99.90
2023-04-28T18:53:47.530Z,99.90
2023-04-28T18:57:50.035Z,99.90
2023-04-28T19:01:51.990Z,99.90
2023-04-28T19:05:54.175Z,99.90
2023-04-28T19:14:12.130Z,99.90
2023-04-28T19:18:14.022Z,99.90
2023-04-28T19:22:36.106Z,99.90
2023-04-28T19:26:38.225Z,99.90
2023-04-28T19:30:40.496Z,99.90
2023-04-28T19:34:42.970Z,99.90
2023-04-28T19:38:46.807Z,99.90
2023-04-28T19:42:48.684Z,99.90
2023-04-28T19:46:50.737Z,99.90
2023-04-28T19:50:53.317Z,99.90
2023-04-28T19:54:55.761Z,99.90
2023-04-28T19:58:58.802Z,99.90
2023-04-28T20:03:00.911Z,99.90
2023-04-28T20:07:04.252Z,99.90
2023-04-28T20:11:07.728Z,99.90
2023-04-28T20:15:09.965Z,99.90
2023-04-28T20:19:11.966Z,99.90
2023-04-28T20:23:13.942Z,99.90
2023-04-28T20:27:16.192Z,99.90
2023-04-28T20:31:18.276Z,99.90
2023-04-28T20:35:22.869Z,99.90
2023-04-28T20:39:24.917Z,99.90
2023-04-28T20:43:27.070Z,99.90
2023-04-28T20:47:33.578Z,99.90
2023-04-28T20:51:37.391Z,99.90
2023-04-28T20:55:39.414Z,99.90
2023-04-28T20:59:41.372Z,99.90
2023-04-28T21:03:43.539Z,99.90
2023-04-28T21:07:45.901Z,99.90
2023-04-28T21:11:48.190Z,99.90
2023-04-28T21:15:50.062Z,99.90
2023-04-28T21:19:53.889Z,99.90
2023-04-28T21:23:56.073Z,99.90
2023-04-28T21:28:00.207Z,99.90
2023-04-28T21:32:06.353Z,99.90
2023-04-28T21:36:09.268Z,99.90
2023-04-28T21:40:11.761Z,99.90
2023-04-28T21:44:13.725Z,99.90
2023-04-28T21:48:15.653Z,99.90
2023-04-28T21:52:17.628Z,99.90
2023-04-28T21:56:19.559Z,99.90
2023-04-28T22:00:22.915Z,99.90
2023-04-28T22:04:25.567Z,99.90
2023-04-28T22:08:27.747Z,99.90
2023-04-28T22:12:29.680Z,99.90
2023-04-28T22:16:32.632Z,99.90
2023-04-28T22:20:34.700Z,99.90
2023-04-28T22:24:37.071Z,99.90
2023-04-28T22:28:39.257Z,99.90
2023-04-28T22:32:44.920Z,99.90
2023-04-28T22:36:47.541Z,99.90
2023-04-28T22:40:49.515Z,99.90
2023-04-28T22:44:51.577Z,99.90
2023-04-28T22:48:53.610Z,99.90
2023-04-28T22:52:55.653Z,99.90
2023-04-28T22:56:57.570Z,99.90
2023-04-28T23:01:04.269Z,99.90
2023-04-28T23:05:06.492Z,99.90
2023-04-28T23:09:08.524Z,99.90
2023-04-28T23:13:11.297Z,99.90
2023-04-28T23:17:13.246Z,99.90
2023-04-28T23:21:15.064Z,99.90
2023-04-28T23:25:17.072Z,99.90
2023-04-28T23:29:19.342Z,99.90
2023-04-28T23:33:21.495Z,99.90
2023-04-28T23:37:23.527Z,99.90
2023-04-28T23:41:26.311Z,99.90
2023-04-28T23:45:28.499Z,99.90
2023-04-28T23:49:30.515Z,99.90
2023-04-28T23:53:32.794Z,99.90
2023-04-28T23:57:34.578Z,99.90
